Time;durP1;ratioP1;P1;durP2;ratioP2;P2;SDS_P1;SDS_P2;PMS_P1;PMS_P2;Temp;Humidity;BMP_temperature;BMP_pressure;BME280_temperature;BME280_humidity;BME280_pressure;Samples;Min_cycle;Max_cycle;Signal;HPM_P1;HPM_P2
2020/12/10 00:01:34;;;;;;;49.88;18.95;;;;;;;;;;5022744;28;20048;-66
2020/12/10 00:03:59;;;;;;;36.70;15.05;;;;;;;;;;5026504;28;20017;-66
2020/12/10 00:06:24;;;;;;;55.85;19.90;;;;;;;;;;5028716;28;20032;-67
2020/12/10 00:08:50;;;;;;;54.33;21.20;;;;;;;;;;5023298;28;20029;-66
2020/12/10 00:11:15;;;;;;;52.10;17.90;;;;;;;;;;5023509;28;20036;-67
2020/12/10 00:13:40;;;;;;;53.75;21.35;;;;;;;;;;5023079;28;20100;-66
2020/12/10 00:16:05;;;;;;;44.20;17.52;;;;;;;;;;5025384;28;20120;-66
2020/12/10 00:18:30;;;;;;;50.85;21.05;;;;;;;;;;5026951;28;20028;-66
2020/12/10 00:20:55;;;;;;;43.65;16.58;;;;;;;;;;5022888;28;20466;-66
2020/12/10 00:23:21;;;;;;;56.30;22.52;;;;;;;;;;5026324;28;20025;-66
2020/12/10 00:25:46;;;;;;;58.35;19.80;;;;;;;;;;5027578;28;20037;-66
2020/12/10 00:28:11;;;;;;;35.42;14.15;;;;;;;;;;5028433;28;20056;-66
2020/12/10 00:30:36;;;;;;;60.85;23.27;;;;;;;;;;5029103;28;20045;-66
2020/12/10 00:33:01;;;;;;;56.20;20.73;;;;;;;;;;5026986;28;20068;-67
2020/12/10 00:35:27;;;;;;;60.90;24.38;;;;;;;;;;5028787;28;20371;-66
2020/12/10 00:37:52;;;;;;;63.60;23.25;;;;;;;;;;5027988;28;20029;-67
2020/12/10 00:40:17;;;;;;;58.78;21.17;;;;;;;;;;5022842;28;20064;-66
2020/12/10 00:42:42;;;;;;;49.47;18.42;;;;;;;;;;5025293;28;20374;-67
2020/12/10 00:45:07;;;;;;;52.20;18.08;;;;;;;;;;5026695;28;20402;-66
2020/12/10 00:47:32;;;;;;;52.05;21.27;;;;;;;;;;5027036;28;20030;-66
2020/12/10 00:49:58;;;;;;;48.38;19.55;;;;;;;;;;5029041;28;20764;-66
2020/12/10 00:52:24;;;;;;;66.55;25.02;;;;;;;;;;5009741;28;20589;-66
2020/12/10 00:54:49;;;;;;;54.53;22.52;;;;;;;;;;5024868;28;20068;-67
2020/12/10 00:57:14;;;;;;;59.08;22.77;;;;;;;;;;5027038;28;20025;-67
2020/12/10 00:59:40;;;;;;;53.50;21.00;;;;;;;;;;5025976;28;20034;-65
2020/12/10 01:02:05;;;;;;;50.47;16.35;;;;;;;;;;5029032;28;20433;-65
2020/12/10 01:04:31;;;;;;;60.58;22.33;;;;;;;;;;5027439;28;20025;-65
2020/12/10 01:06:56;;;;;;;35.78;13.02;;;;;;;;;;5025820;28;20108;-64
2020/12/10 01:09:21;;;;;;;60.63;23.48;;;;;;;;;;5026842;28;20083;-65
2020/12/10 01:11:46;;;;;;;30.10;11.88;;;;;;;;;;5026208;28;20034;-64
2020/12/10 01:14:13;;;;;;;49.25;16.60;;;;;;;;;;5027549;28;20232;-65
2020/12/10 01:16:39;;;;;;;55.50;23.05;;;;;;;;;;5024854;28;20311;-65
2020/12/10 01:19:04;;;;;;;65.00;21.40;;;;;;;;;;5025703;28;20505;-65
2020/12/10 01:21:33;;;;;;;56.88;20.48;;;;;;;;;;5027557;28;20410;-64
2020/12/10 01:23:59;;;;;;;57.65;19.60;;;;;;;;;;5028472;28;20052;-66
2020/12/10 01:26:29;;;;;;;59.38;21.52;;;;;;;;;;5021963;28;20356;-65
2020/12/10 01:28:54;;;;;;;60.88;23.27;;;;;;;;;;5009981;28;20038;-64
2020/12/10 01:31:20;;;;;;;60.42;22.20;;;;;;;;;;5026385;28;20544;-65
2020/12/10 01:33:45;;;;;;;58.58;21.35;;;;;;;;;;5027842;28;20031;-65
2020/12/10 01:36:15;;;;;;;53.38;18.63;;;;;;;;;;5025088;28;20040;-65
2020/12/10 01:38:40;;;;;;;60.30;22.90;;;;;;;;;;5025580;28;20093;-64
2020/12/10 01:41:05;;;;;;;57.08;21.95;;;;;;;;;;5025147;28;20109;-65
2020/12/10 01:43:30;;;;;;;53.33;22.55;;;;;;;;;;5029754;22;620351;-72
2020/12/10 01:45:55;;;;;;;58.08;22.45;;;;;;;;;;5031650;28;20036;-72
2020/12/10 01:48:20;;;;;;;32.85;13.30;;;;;;;;;;5032819;28;20025;-72
2020/12/10 01:50:46;;;;;;;51.42;20.10;;;;;;;;;;5031078;28;20040;-72
2020/12/10 01:53:11;;;;;;;50.80;18.05;;;;;;;;;;5041190;28;20026;-72
2020/12/10 01:55:36;;;;;;;19.75;9.43;;;;;;;;;;5010485;28;20033;-72
2020/12/10 01:58:01;;;;;;;55.92;23.02;;;;;;;;;;5014202;28;20458;-72
2020/12/10 02:00:27;;;;;;;43.55;16.40;;;;;;;;;;5012066;28;20022;-72
2020/12/10 02:02:56;;;;;;;53.10;21.33;;;;;;;;;;5012427;28;20029;-72
2020/12/10 02:05:21;;;;;;;44.67;15.48;;;;;;;;;;5013980;28;20045;-72
2020/12/10 02:07:46;;;;;;;57.03;22.40;;;;;;;;;;5014131;28;20053;-72
2020/12/10 02:10:11;;;;;;;53.03;19.50;;;;;;;;;;5011840;28;20026;-72
2020/12/10 02:12:39;;;;;;;55.13;22.73;;;;;;;;;;5014496;28;20082;-72
2020/12/10 02:15:04;;;;;;;57.67;23.98;;;;;;;;;;5011815;28;20046;-72
2020/12/10 02:17:29;;;;;;;64.13;25.00;;;;;;;;;;5013459;28;20022;-72
2020/12/10 02:19:54;;;;;;;49.88;18.00;;;;;;;;;;5014036;28;20026;-72
2020/12/10 02:22:19;;;;;;;22.13;9.57;;;;;;;;;;5012680;28;20022;-74
2020/12/10 02:24:45;;;;;;;52.20;22.25;;;;;;;;;;5009164;28;20109;-72
2020/12/10 02:27:10;;;;;;;54.03;22.58;;;;;;;;;;5027763;28;20084;-72
2020/12/10 02:29:35;;;;;;;63.40;23.85;;;;;;;;;;5011743;28;20109;-72
2020/12/10 02:32:00;;;;;;;55.85;22.95;;;;;;;;;;5011994;28;20028;-72
2020/12/10 02:34:25;;;;;;;54.05;20.48;;;;;;;;;;5011594;28;20025;-72
2020/12/10 02:36:51;;;;;;;67.68;26.00;;;;;;;;;;5012384;28;20066;-72
2020/12/10 02:39:16;;;;;;;61.72;22.00;;;;;;;;;;5011626;28;20076;-72
2020/12/10 02:41:41;;;;;;;59.05;21.92;;;;;;;;;;5011368;28;20421;-72
2020/12/10 02:44:06;;;;;;;55.80;21.95;;;;;;;;;;5013645;28;20053;-72
2020/12/10 02:46:32;;;;;;;57.45;22.80;;;;;;;;;;5011088;28;20017;-73
2020/12/10 02:48:57;;;;;;;55.88;22.30;;;;;;;;;;5011684;28;20021;-72
2020/12/10 02:51:23;;;;;;;65.63;23.65;;;;;;;;;;5008884;28;20033;-73
2020/12/10 02:53:48;;;;;;;63.95;24.00;;;;;;;;;;5011359;28;20061;-72
2020/12/10 02:56:14;;;;;;;64.55;24.13;;;;;;;;;;5014795;28;20026;-72
2020/12/10 02:58:39;;;;;;;59.65;23.02;;;;;;;;;;5011324;28;20385;-72
2020/12/10 03:01:05;;;;;;;56.17;20.30;;;;;;;;;;5011130;28;20026;-72
2020/12/10 03:03:30;;;;;;;63.47;23.88;;;;;;;;;;5009958;28;20075;-72
2020/12/10 03:05:56;;;;;;;67.07;25.40;;;;;;;;;;5009148;28;20381;-72
2020/12/10 03:08:21;;;;;;;61.60;23.75;;;;;;;;;;5012770;28;20018;-73
2020/12/10 03:10:48;;;;;;;55.15;23.05;;;;;;;;;;5012410;28;20045;-72
2020/12/10 03:13:13;;;;;;;65.25;25.05;;;;;;;;;;5012619;28;20114;-72
2020/12/10 03:15:38;;;;;;;63.95;23.42;;;;;;;;;;5014226;28;20073;-72
2020/12/10 03:18:03;;;;;;;63.33;25.33;;;;;;;;;;5011524;28;20022;-72
2020/12/10 03:20:29;;;;;;;64.78;25.45;;;;;;;;;;5010058;28;20018;-72
2020/12/10 03:22:54;;;;;;;63.35;25.23;;;;;;;;;;4994027;28;20018;-72
2020/12/10 03:25:19;;;;;;;60.60;23.38;;;;;;;;;;5011172;28;20351;-72
2020/12/10 03:27:44;;;;;;;73.63;26.33;;;;;;;;;;5008278;28;20030;-72
2020/12/10 03:30:09;;;;;;;55.78;22.80;;;;;;;;;;5012997;28;20080;-72
2020/12/10 03:32:35;;;;;;;70.00;26.58;;;;;;;;;;5011562;28;20445;-72
2020/12/10 03:35:02;;;;;;;68.28;26.50;;;;;;;;;;5011488;28;20470;-72
2020/12/10 03:37:27;;;;;;;61.83;24.90;;;;;;;;;;5019891;28;20420;-72
2020/12/10 03:39:52;;;;;;;62.47;23.08;;;;;;;;;;5009318;28;20092;-72
2020/12/10 03:42:17;;;;;;;69.78;26.33;;;;;;;;;;5010929;28;20040;-72
2020/12/10 03:44:42;;;;;;;63.60;24.67;;;;;;;;;;5012505;28;20386;-72
2020/12/10 03:47:07;;;;;;;65.07;24.67;;;;;;;;;;4993461;28;20034;-72
2020/12/10 03:49:33;;;;;;;71.65;27.45;;;;;;;;;;5009664;28;20285;-72
2020/12/10 03:51:58;;;;;;;72.32;26.67;;;;;;;;;;5009372;28;20104;-72
2020/12/10 03:54:23;;;;;;;66.15;26.40;;;;;;;;;;4990334;28;20025;-70
2020/12/10 03:56:48;;;;;;;59.10;24.35;;;;;;;;;;5011840;28;20662;-74
2020/12/10 03:59:14;;;;;;;69.90;25.20;;;;;;;;;;5011504;28;20069;-70
2020/12/10 04:01:39;;;;;;;64.50;23.05;;;;;;;;;;5010168;28;20010;-74
2020/12/10 04:04:04;;;;;;;65.40;23.95;;;;;;;;;;5009764;28;20026;-74
2020/12/10 04:06:29;;;;;;;62.67;25.95;;;;;;;;;;5009738;28;20105;-71
2020/12/10 04:08:55;;;;;;;61.75;23.02;;;;;;;;;;5013592;28;20397;-72
2020/12/10 04:11:20;;;;;;;66.93;27.75;;;;;;;;;;5011178;28;20091;-75
2020/12/10 04:13:45;;;;;;;69.25;25.92;;;;;;;;;;5012901;28;20029;-75
2020/12/10 04:16:10;;;;;;;62.05;26.10;;;;;;;;;;5009768;28;20037;-75
2020/12/10 04:18:37;;;;;;;64.68;23.88;;;;;;;;;;5010302;28;20026;-73
2020/12/10 04:21:02;;;;;;;70.82;26.30;;;;;;;;;;5009566;28;20034;-73
2020/12/10 04:23:27;;;;;;;70.80;27.48;;;;;;;;;;5010055;28;20018;-75
2020/12/10 04:25:53;;;;;;;77.18;26.98;;;;;;;;;;5012166;28;20450;-74
2020/12/10 04:28:19;;;;;;;63.75;25.90;;;;;;;;;;5012224;28;20033;-74
2020/12/10 04:30:44;;;;;;;68.40;25.20;;;;;;;;;;5009568;28;20036;-72
2020/12/10 04:33:09;;;;;;;67.50;24.50;;;;;;;;;;5010504;28;20029;-74
2020/12/10 04:35:34;;;;;;;72.50;26.80;;;;;;;;;;5011113;28;20106;-72
2020/12/10 04:37:59;;;;;;;69.38;25.00;;;;;;;;;;5011338;28;20108;-73
2020/12/10 04:40:25;;;;;;;65.93;24.10;;;;;;;;;;5006718;28;20134;-75
2020/12/10 04:42:50;;;;;;;66.65;26.92;;;;;;;;;;5007365;28;20022;-74
2020/12/10 04:45:15;;;;;;;67.22;26.08;;;;;;;;;;5007817;28;20037;-75
2020/12/10 04:47:41;;;;;;;65.38;26.83;;;;;;;;;;5009397;28;20072;-75
2020/12/10 04:50:15;;;;;;;69.70;26.92;;;;;;;;;;5008790;28;20569;-75
2020/12/10 04:52:40;;;;;;;59.13;22.52;;;;;;;;;;5006207;28;20037;-72
2020/12/10 04:55:06;;;;;;;59.53;21.08;;;;;;;;;;5011966;28;20543;-75
2020/12/10 04:57:31;;;;;;;59.15;21.83;;;;;;;;;;5009689;28;20109;-73
2020/12/10 04:59:56;;;;;;;67.00;24.60;;;;;;;;;;5007987;28;20109;-75
2020/12/10 05:02:22;;;;;;;69.43;27.50;;;;;;;;;;5007642;28;20091;-74
2020/12/10 05:04:47;;;;;;;74.20;27.05;;;;;;;;;;5010194;28;20026;-75
2020/12/10 05:07:12;;;;;;;69.82;26.23;;;;;;;;;;5010263;28;20071;-75
2020/12/10 05:09:37;;;;;;;63.15;27.02;;;;;;;;;;5008029;28;20481;-75
2020/12/10 05:12:02;;;;;;;65.20;24.58;;;;;;;;;;5012509;28;20065;-75
2020/12/10 05:14:43;;;;;;;60.50;25.95;;;;;;;;;;5010300;28;20541;-74
2020/12/10 05:17:12;;;;;;;67.53;24.65;;;;;;;;;;5008041;28;20021;-75
2020/12/10 05:19:38;;;;;;;67.05;26.60;;;;;;;;;;5008868;28;20437;-74
2020/12/10 05:22:04;;;;;;;63.65;23.92;;;;;;;;;;5015951;28;20080;-75
2020/12/10 05:24:30;;;;;;;63.67;27.30;;;;;;;;;;5013019;28;20025;-74
2020/12/10 05:27:13;;;;;;;55.30;19.65;;;;;;;;;;5012560;28;20196;-75
2020/12/10 05:29:39;;;;;;;66.43;24.00;;;;;;;;;;5009112;28;20088;-75
2020/12/10 05:32:04;;;;;;;64.63;26.15;;;;;;;;;;5013758;28;20477;-74
2020/12/10 05:34:29;;;;;;;62.70;25.50;;;;;;;;;;5013944;28;20472;-74
2020/12/10 05:36:54;;;;;;;60.75;23.42;;;;;;;;;;5010212;28;20113;-72
2020/12/10 05:39:19;;;;;;;63.00;24.50;;;;;;;;;;5012714;28;20456;-74
2020/12/10 05:41:52;;;;;;;66.65;24.85;;;;;;;;;;5012547;28;20144;-74
2020/12/10 05:44:18;;;;;;;59.58;24.25;;;;;;;;;;5010191;28;20118;-75
2020/12/10 05:46:44;;;;;;;58.60;23.05;;;;;;;;;;5008756;28;20041;-73
2020/12/10 05:49:13;;;;;;;53.45;20.50;;;;;;;;;;5011652;28;20493;-75
2020/12/10 05:51:46;;;;;;;69.60;25.08;;;;;;;;;;5009185;28;20052;-75
2020/12/10 05:54:12;;;;;;;67.50;23.50;;;;;;;;;;5010228;28;20026;-73
2020/12/10 05:56:52;;;;;;;65.10;25.08;;;;;;;;;;5012139;28;20584;-75
2020/12/10 05:59:17;;;;;;;66.78;25.00;;;;;;;;;;5011231;28;20478;-71
2020/12/10 06:01:43;;;;;;;56.90;24.15;;;;;;;;;;5009113;28;20033;-74
2020/12/10 06:04:08;;;;;;;62.78;23.00;;;;;;;;;;5011164;28;20022;-75
2020/12/10 06:06:33;;;;;;;57.38;23.90;;;;;;;;;;5010049;28;20037;-75
2020/12/10 06:09:03;;;;;;;60.78;24.33;;;;;;;;;;5007901;28;20782;-75
2020/12/10 06:11:29;;;;;;;56.85;21.92;;;;;;;;;;5009547;28;20037;-74
2020/12/10 06:14:01;;;;;;;66.55;23.65;;;;;;;;;;5009743;28;20060;-71
2020/12/10 06:16:27;;;;;;;63.50;25.58;;;;;;;;;;5001233;28;20034;-74
2020/12/10 06:19:01;;;;;;;59.17;23.58;;;;;;;;;;5006436;28;20076;-74
2020/12/10 06:21:43;;;;;;;67.43;25.92;;;;;;;;;;5010286;28;20256;-75
2020/12/10 06:24:17;;;;;;;65.18;25.08;;;;;;;;;;5010076;28;20041;-75
2020/12/10 06:26:43;;;;;;;75.38;26.08;;;;;;;;;;5009376;28;20496;-75
2020/12/10 06:29:18;;;;;;;68.93;26.38;;;;;;;;;;5010708;28;20022;-75
2020/12/10 06:32:02;;;;;;;73.00;26.63;;;;;;;;;;5008581;28;20775;-75
2020/12/10 06:34:34;;;;;;;69.25;25.42;;;;;;;;;;5009373;28;20022;-74
2020/12/10 06:37:32;;;;;;;66.85;25.63;;;;;;;;;;5008322;28;20545;-75
2020/12/10 06:40:06;;;;;;;65.72;24.55;;;;;;;;;;4981085;28;20385;-74
2020/12/10 06:42:44;;;;;;;63.83;25.60;;;;;;;;;;5009071;28;20076;-73
2020/12/10 06:45:25;;;;;;;66.45;25.13;;;;;;;;;;5002427;28;20442;-75
2020/12/10 06:47:50;;;;;;;65.05;25.42;;;;;;;;;;5005506;28;20490;-74
2020/12/10 06:50:26;;;;;;;60.78;24.25;;;;;;;;;;5009281;28;20065;-74
2020/12/10 06:53:10;;;;;;;66.40;23.75;;;;;;;;;;5009767;28;20034;-71
2020/12/10 06:55:54;;;;;;;69.25;24.30;;;;;;;;;;5012346;28;20026;-71
2020/12/10 06:58:19;;;;;;;68.35;24.50;;;;;;;;;;5007622;28;20409;-70
2020/12/10 07:00:50;;;;;;;65.57;25.17;;;;;;;;;;5009066;28;20025;-71
2020/12/10 07:03:28;;;;;;;63.97;23.67;;;;;;;;;;5009930;28;20026;-71
2020/12/10 07:05:53;;;;;;;52.40;20.85;;;;;;;;;;5008366;28;20389;-71
2020/12/10 07:08:19;;;;;;;75.20;26.42;;;;;;;;;;5008131;28;20026;-73
2020/12/10 07:10:46;;;;;;;63.75;22.52;;;;;;;;;;5012092;28;20368;-73
2020/12/10 07:13:11;;;;;;;59.63;24.92;;;;;;;;;;5012660;28;20017;-73
2020/12/10 07:15:37;;;;;;;62.03;22.67;;;;;;;;;;5008040;28;20036;-70
2020/12/10 07:18:04;;;;;;;50.97;19.73;;;;;;;;;;5009462;28;20467;-74
2020/12/10 07:20:31;;;;;;;60.65;26.30;;;;;;;;;;5008256;28;20014;-73
2020/12/10 07:22:56;;;;;;;58.25;23.88;;;;;;;;;;5012043;28;20043;-72
2020/12/10 07:25:21;;;;;;;62.60;23.52;;;;;;;;;;5009766;28;20022;-73
2020/12/10 07:27:47;;;;;;;63.72;22.35;;;;;;;;;;5010205;28;20026;-70
2020/12/10 07:30:17;;;;;;;58.67;23.40;;;;;;;;;;5008376;28;20474;-71
2020/12/10 07:32:42;;;;;;;65.38;24.33;;;;;;;;;;4994176;28;20030;-71
2020/12/10 07:35:08;;;;;;;52.08;23.10;;;;;;;;;;5012026;28;20018;-71
2020/12/10 07:37:33;;;;;;;59.10;24.58;;;;;;;;;;5008698;28;20433;-71
2020/12/10 07:40:28;;;;;;;64.53;25.35;;;;;;;;;;5008347;28;20022;-72
2020/12/10 07:43:01;;;;;;;58.95;23.48;;;;;;;;;;5002164;28;20052;-73
2020/12/10 07:45:26;;;;;;;55.25;22.45;;;;;;;;;;5009982;28;20092;-73
2020/12/10 07:47:55;;;;;;;57.80;23.30;;;;;;;;;;5011003;28;20017;-73
2020/12/10 07:50:23;;;;;;;59.38;23.15;;;;;;;;;;5009551;28;20029;-73
2020/12/10 07:52:49;;;;;;;56.38;22.30;;;;;;;;;;5015497;28;20018;-73
2020/12/10 07:55:15;;;;;;;61.17;24.10;;;;;;;;;;5009121;28;20088;-73
2020/12/10 07:57:42;;;;;;;64.28;23.85;;;;;;;;;;5008199;28;20022;-73
2020/12/10 08:00:13;;;;;;;61.75;24.58;;;;;;;;;;5009114;28;20096;-74
2020/12/10 08:02:38;;;;;;;54.47;23.17;;;;;;;;;;5005679;28;20093;-73
2020/12/10 08:05:11;;;;;;;59.97;22.60;;;;;;;;;;5019950;28;20112;-73
2020/12/10 08:07:37;;;;;;;56.40;22.95;;;;;;;;;;5012199;28;20535;-74
2020/12/10 08:10:02;;;;;;;53.85;22.08;;;;;;;;;;5009587;28;20377;-74
2020/12/10 08:12:27;;;;;;;55.17;22.90;;;;;;;;;;5009742;28;20034;-73
2020/12/10 08:14:52;;;;;;;55.22;22.42;;;;;;;;;;5011172;28;20028;-73
2020/12/10 08:17:18;;;;;;;56.80;24.48;;;;;;;;;;5010558;28;20026;-73
2020/12/10 08:19:52;;;;;;;65.65;24.02;;;;;;;;;;5010184;28;20490;-73
2020/12/10 08:22:20;;;;;;;57.33;24.35;;;;;;;;;;5010402;28;20026;-74
2020/12/10 08:24:46;;;;;;;54.60;23.42;;;;;;;;;;5009943;28;20045;-74
2020/12/10 08:27:12;;;;;;;47.25;22.65;;;;;;;;;;5006115;28;20025;-73
2020/12/10 08:29:38;;;;;;;48.10;22.15;;;;;;;;;;5008888;28;20033;-74
2020/12/10 08:32:06;;;;;;;48.75;22.33;;;;;;;;;;5010617;28;20359;-74
2020/12/10 08:34:31;;;;;;;44.20;21.50;;;;;;;;;;5010007;28;20022;-73
2020/12/10 08:37:03;;;;;;;46.60;22.52;;;;;;;;;;5010376;28;20029;-74
2020/12/10 08:39:33;;;;;;;52.42;23.70;;;;;;;;;;5017406;28;20033;-74
2020/12/10 08:41:58;;;;;;;52.00;23.55;;;;;;;;;;5010881;28;20092;-74
2020/12/10 08:44:23;;;;;;;50.78;24.67;;;;;;;;;;5009537;28;20072;-74
2020/12/10 08:46:58;;;;;;;49.20;24.13;;;;;;;;;;5009904;28;20544;-74
2020/12/10 08:49:23;;;;;;;50.28;22.45;;;;;;;;;;5010040;28;20341;-74
2020/12/10 08:51:50;;;;;;;50.60;25.02;;;;;;;;;;5010357;28;20116;-74
2020/12/10 08:54:15;;;;;;;45.10;22.75;;;;;;;;;;5009819;28;20104;-74
2020/12/10 08:56:41;;;;;;;47.35;21.08;;;;;;;;;;5001097;28;20176;-74
2020/12/10 08:59:06;;;;;;;44.72;22.70;;;;;;;;;;5008040;28;20049;-74
2020/12/10 09:01:32;;;;;;;38.97;21.85;;;;;;;;;;5009808;28;20026;-74
2020/12/10 09:03:57;;;;;;;38.92;17.88;;;;;;;;;;5009631;28;20101;-74
2020/12/10 09:06:23;;;;;;;39.10;18.02;;;;;;;;;;5009906;28;20010;-74
2020/12/10 09:08:51;;;;;;;38.80;18.73;;;;;;;;;;5009638;28;20018;-74
2020/12/10 09:11:16;;;;;;;40.88;19.88;;;;;;;;;;5008314;28;20022;-74
2020/12/10 09:13:41;;;;;;;36.80;18.08;;;;;;;;;;5009520;28;20030;-74
2020/12/10 09:16:07;;;;;;;38.97;18.60;;;;;;;;;;5009278;28;20026;-74
2020/12/10 09:18:32;;;;;;;40.20;18.10;;;;;;;;;;5009116;28;20288;-74
2020/12/10 09:20:57;;;;;;;32.57;16.83;;;;;;;;;;5006844;28;20536;-74
2020/12/10 09:23:22;;;;;;;33.15;15.85;;;;;;;;;;5008448;28;20364;-74
2020/12/10 09:25:47;;;;;;;35.88;18.75;;;;;;;;;;4989661;28;20377;-76
2020/12/10 09:28:12;;;;;;;35.43;15.67;;;;;;;;;;5008702;28;20025;-74
2020/12/10 09:30:38;;;;;;;40.83;18.83;;;;;;;;;;5009124;28;20281;-74
2020/12/10 09:33:04;;;;;;;38.25;17.88;;;;;;;;;;4998206;28;20019;-74
2020/12/10 09:35:29;;;;;;;31.73;16.05;;;;;;;;;;5009796;28;20021;-74
2020/12/10 09:37:55;;;;;;;23.02;11.60;;;;;;;;;;5010071;28;20034;-74
2020/12/10 09:40:20;;;;;;;34.15;17.30;;;;;;;;;;5008812;28;20025;-74
2020/12/10 09:42:46;;;;;;;31.95;16.10;;;;;;;;;;5009598;28;20022;-73
2020/12/10 09:45:11;;;;;;;31.42;15.32;;;;;;;;;;5009005;28;20474;-74
2020/12/10 09:47:37;;;;;;;22.60;9.65;;;;;;;;;;5003201;28;20108;-73
2020/12/10 09:50:03;;;;;;;27.80;14.38;;;;;;;;;;5009866;28;20022;-74
2020/12/10 09:52:30;;;;;;;26.30;11.90;;;;;;;;;;5008812;28;20371;-74
2020/12/10 09:57:31;;;;;;;21.70;9.65;;;;;;;;;;5009337;28;20038;-73
2020/12/10 10:00:00;;;;;;;28.48;12.50;;;;;;;;;;5008245;28;20100;-73
2020/12/10 10:02:25;;;;;;;21.05;9.27;;;;;;;;;;5009894;28;20026;-73
2020/12/10 10:04:50;;;;;;;17.83;7.97;;;;;;;;;;5010820;28;20379;-74
2020/12/10 10:07:16;;;;;;;19.60;9.60;;;;;;;;;;5013228;28;20021;-73
2020/12/10 10:09:42;;;;;;;24.15;11.35;;;;;;;;;;5012593;28;20393;-74
2020/12/10 10:12:07;;;;;;;28.08;13.73;;;;;;;;;;5013077;28;20405;-73
2020/12/10 10:14:33;;;;;;;20.02;10.00;;;;;;;;;;5012450;28;20033;-73
2020/12/10 10:16:58;;;;;;;23.90;11.18;;;;;;;;;;5012044;28;20291;-73
2020/12/10 10:19:24;;;;;;;25.52;10.25;;;;;;;;;;5011865;28;20465;-73
2020/12/10 10:21:49;;;;;;;19.23;8.38;;;;;;;;;;5012084;28;20068;-73
2020/12/10 10:24:14;;;;;;;21.02;8.07;;;;;;;;;;5026919;28;20076;-74
2020/12/10 10:26:40;;;;;;;20.38;8.32;;;;;;;;;;5014705;28;20080;-73
2020/12/10 10:29:08;;;;;;;21.00;9.88;;;;;;;;;;5012096;28;20026;-73
2020/12/10 10:31:33;;;;;;;23.63;11.05;;;;;;;;;;5027847;28;20032;-74
2020/12/10 10:33:58;;;;;;;27.30;12.55;;;;;;;;;;5012437;28;20464;-74
2020/12/10 10:36:23;;;;;;;27.08;12.32;;;;;;;;;;5012478;28;20108;-73
2020/12/10 10:38:49;;;;;;;28.35;13.50;;;;;;;;;;5012373;28;20129;-73
2020/12/10 10:41:14;;;;;;;28.25;13.82;;;;;;;;;;5012000;28;20466;-74
2020/12/10 10:43:39;;;;;;;23.73;9.25;;;;;;;;;;5011903;28;20096;-73
2020/12/10 10:46:04;;;;;;;20.75;9.20;;;;;;;;;;5014168;28;20029;-73
2020/12/10 10:48:29;;;;;;;16.45;8.20;;;;;;;;;;5011336;28;20021;-73
2020/12/10 10:50:55;;;;;;;16.38;7.25;;;;;;;;;;5011911;28;20030;-73
2020/12/10 10:53:20;;;;;;;12.75;5.68;;;;;;;;;;5011899;28;20017;-74
2020/12/10 10:55:47;;;;;;;15.63;7.00;;;;;;;;;;5012460;28;20437;-73
2020/12/10 10:58:12;;;;;;;18.65;8.48;;;;;;;;;;5011711;28;20022;-74
2020/12/10 11:00:37;;;;;;;21.35;9.02;;;;;;;;;;5011349;28;20038;-73
2020/12/10 11:03:03;;;;;;;17.92;7.78;;;;;;;;;;5010395;28;20014;-74
2020/12/10 11:05:28;;;;;;;20.80;10.55;;;;;;;;;;5002812;28;20484;-73
2020/12/10 11:07:53;;;;;;;17.37;8.13;;;;;;;;;;5011965;28;20473;-73
2020/12/10 11:10:22;;;;;;;24.03;8.93;;;;;;;;;;5011160;28;20347;-72
2020/12/10 11:12:48;;;;;;;11.88;6.13;;;;;;;;;;5011636;28;20269;-73
2020/12/10 11:15:13;;;;;;;21.60;9.32;;;;;;;;;;5011346;28;20026;-73
2020/12/10 11:17:38;;;;;;;19.90;9.07;;;;;;;;;;5011079;28;20021;-72
2020/12/10 11:20:05;;;;;;;28.50;10.23;;;;;;;;;;5009819;28;20084;-72
2020/12/10 11:22:31;;;;;;;13.73;5.00;;;;;;;;;;5014357;28;20339;-74
2020/12/10 11:24:56;;;;;;;15.55;6.78;;;;;;;;;;5010279;28;20112;-72
2020/12/10 11:27:21;;;;;;;19.60;7.77;;;;;;;;;;5011547;28;20107;-73
2020/12/10 11:29:46;;;;;;;13.73;6.20;;;;;;;;;;5010823;28;20261;-72
2020/12/10 11:32:12;;;;;;;17.67;7.47;;;;;;;;;;5010794;28;20697;-73
2020/12/10 11:34:37;;;;;;;17.67;6.75;;;;;;;;;;5026635;28;20264;-72
2020/12/10 11:37:02;;;;;;;16.58;6.88;;;;;;;;;;5006725;28;20392;-73
2020/12/10 11:39:27;;;;;;;10.77;6.05;;;;;;;;;;5010154;28;20026;-73
2020/12/10 11:41:52;;;;;;;22.73;9.82;;;;;;;;;;5009714;28;20017;-73
2020/12/10 11:44:18;;;;;;;17.35;7.40;;;;;;;;;;5009517;28;20030;-73
2020/12/10 11:46:45;;;;;;;14.10;5.93;;;;;;;;;;5009679;28;20045;-72
2020/12/10 11:49:11;;;;;;;14.15;4.90;;;;;;;;;;5008471;28;20047;-73
2020/12/10 11:51:36;;;;;;;20.20;8.77;;;;;;;;;;5010045;28;20550;-72
2020/12/10 11:54:01;;;;;;;18.40;8.77;;;;;;;;;;5010266;28;20029;-73
2020/12/10 11:56:26;;;;;;;10.27;5.15;;;;;;;;;;5010257;28;20425;-73
2020/12/10 11:58:52;;;;;;;10.63;5.90;;;;;;;;;;5009553;28;20025;-72
2020/12/10 12:01:17;;;;;;;15.20;7.40;;;;;;;;;;5009870;28;20748;-72
2020/12/10 12:03:42;;;;;;;21.00;8.82;;;;;;;;;;4991949;28;20379;-72
2020/12/10 12:06:07;;;;;;;12.35;4.57;;;;;;;;;;5010150;28;20020;-73
2020/12/10 12:08:35;;;;;;;15.70;5.05;;;;;;;;;;5010022;28;20022;-72
2020/12/10 12:11:01;;;;;;;15.73;6.18;;;;;;;;;;5009249;28;20029;-72
2020/12/10 12:13:26;;;;;;;20.13;8.18;;;;;;;;;;5007584;28;20524;-72
2020/12/10 12:15:51;;;;;;;16.53;7.33;;;;;;;;;;5010839;28;20036;-72
2020/12/10 12:18:17;;;;;;;17.50;8.02;;;;;;;;;;5009519;28;20823;-73
2020/12/10 12:20:43;;;;;;;10.77;3.60;;;;;;;;;;5008784;28;20009;-73
2020/12/10 12:23:08;;;;;;;13.32;5.80;;;;;;;;;;5008787;28;20045;-72
2020/12/10 12:25:35;;;;;;;12.13;5.75;;;;;;;;;;5011674;28;20517;-73
2020/12/10 12:28:00;;;;;;;9.23;3.80;;;;;;;;;;5009454;28;20475;-73
2020/12/10 12:30:26;;;;;;;7.03;3.42;;;;;;;;;;5009741;28;20033;-73
2020/12/10 12:32:51;;;;;;;12.05;5.45;;;;;;;;;;5005967;28;20060;-73
2020/12/10 12:35:16;;;;;;;7.68;3.40;;;;;;;;;;5009179;28;20018;-73
2020/12/10 12:37:41;;;;;;;14.93;6.28;;;;;;;;;;5009436;28;20472;-73
2020/12/10 12:40:06;;;;;;;16.60;6.47;;;;;;;;;;5010037;28;20022;-73
2020/12/10 12:42:31;;;;;;;7.43;3.43;;;;;;;;;;5009444;28;20037;-72
2020/12/10 12:44:57;;;;;;;13.88;6.82;;;;;;;;;;5009117;28;20269;-73
2020/12/10 12:47:22;;;;;;;13.07;7.00;;;;;;;;;;5012716;28;20029;-73
2020/12/10 12:49:47;;;;;;;16.20;7.60;;;;;;;;;;5006218;28;20057;-73
2020/12/10 12:52:13;;;;;;;8.82;4.20;;;;;;;;;;5006036;28;20025;-73
2020/12/10 12:54:38;;;;;;;14.48;5.00;;;;;;;;;;5007020;28;20030;-73
2020/12/10 12:57:03;;;;;;;10.00;4.05;;;;;;;;;;5007545;28;20072;-73
2020/12/10 12:59:29;;;;;;;16.83;7.15;;;;;;;;;;5008990;28;20022;-73
2020/12/10 13:01:54;;;;;;;14.20;5.90;;;;;;;;;;5008273;28;20015;-73
2020/12/10 13:04:21;;;;;;;17.60;5.67;;;;;;;;;;5008509;28;21451;-73
2020/12/10 13:06:47;;;;;;;15.38;5.43;;;;;;;;;;5008499;28;20348;-73
2020/12/10 13:09:13;;;;;;;16.77;8.38;;;;;;;;;;5008026;28;20105;-73
2020/12/10 13:11:38;;;;;;;11.73;4.57;;;;;;;;;;5014012;28;20508;-73
2020/12/10 13:14:04;;;;;;;12.23;5.32;;;;;;;;;;5013012;28;20022;-73
2020/12/10 13:16:29;;;;;;;16.33;6.78;;;;;;;;;;5018430;28;20020;-73
2020/12/10 13:18:55;;;;;;;15.53;7.13;;;;;;;;;;5008542;28;20113;-73
2020/12/10 13:21:21;;;;;;;16.60;7.85;;;;;;;;;;5008356;28;20261;-73
2020/12/10 13:23:46;;;;;;;27.10;10.88;;;;;;;;;;5008023;28;20025;-73
2020/12/10 13:26:11;;;;;;;22.08;10.60;;;;;;;;;;5013551;28;20022;-73
2020/12/10 13:28:36;;;;;;;13.88;5.88;;;;;;;;;;5008380;28;20568;-73
2020/12/10 13:31:01;;;;;;;20.27;9.27;;;;;;;;;;5029274;28;20038;-73
2020/12/10 13:33:27;;;;;;;21.08;9.63;;;;;;;;;;5008974;28;20767;-73
2020/12/10 13:35:52;;;;;;;21.27;8.77;;;;;;;;;;5008346;28;20022;-73
2020/12/10 13:38:17;;;;;;;24.25;10.43;;;;;;;;;;5008673;28;20033;-73
2020/12/10 13:40:42;;;;;;;15.35;6.72;;;;;;;;;;5009307;28;20026;-73
2020/12/10 13:43:07;;;;;;;28.50;8.88;;;;;;;;;;5012423;28;20734;-71
2020/12/10 13:45:32;;;;;;;18.67;8.73;;;;;;;;;;5012203;28;20021;-73
2020/12/10 13:47:58;;;;;;;15.52;6.90;;;;;;;;;;5014537;28;20536;-71
2020/12/10 13:50:23;;;;;;;21.58;9.68;;;;;;;;;;5007574;28;20029;-71
2020/12/10 13:52:48;;;;;;;21.08;8.48;;;;;;;;;;5008783;28;20025;-70
2020/12/10 13:55:15;;;;;;;19.17;8.55;;;;;;;;;;5011893;28;20488;-71
2020/12/10 13:57:40;;;;;;;20.75;9.00;;;;;;;;;;5005631;28;20076;-71
2020/12/10 14:00:05;;;;;;;18.05;8.07;;;;;;;;;;5011476;28;20026;-72
2020/12/10 14:02:31;;;;;;;17.58;9.15;;;;;;;;;;5005726;28;20096;-70
2020/12/10 14:04:56;;;;;;;12.90;7.65;;;;;;;;;;5012721;28;20021;-71
2020/12/10 14:07:21;;;;;;;15.05;8.05;;;;;;;;;;5012995;28;20065;-71
2020/12/10 14:09:46;;;;;;;17.45;8.13;;;;;;;;;;5012204;28;20018;-71
2020/12/10 14:12:12;;;;;;;15.57;7.97;;;;;;;;;;5015609;28;20030;-71
2020/12/10 14:14:37;;;;;;;18.25;8.57;;;;;;;;;;5011766;28;20060;-71
2020/12/10 14:17:02;;;;;;;16.02;7.95;;;;;;;;;;5013668;28;20064;-70
2020/12/10 14:19:28;;;;;;;18.17;7.25;;;;;;;;;;5012604;28;20022;-73